sensor_id;sensor_type;location;lat;lon;timestamp;temperature;humidity
4677;DHT22;2352;48.180;11.478;2023-10-13T00:01:04;20.30;74.30
4677;DHT22;2352;48.180;11.478;2023-10-13T00:04:09;20.20;75.00
4677;DHT22;2352;48.180;11.478;2023-10-13T00:07:13;20.10;75.60
4677;DHT22;2352;48.180;11.478;2023-10-13T00:10:16;20.10;75.90
4677;DHT22;2352;48.180;11.478;2023-10-13T00:13:20;20.00;76.00
4677;DHT22;2352;48.180;11.478;2023-10-13T00:16:25;20.00;76.40
4677;DHT22;2352;48.180;11.478;2023-10-13T00:19:29;19.90;76.70
4677;DHT22;2352;48.180;11.478;2023-10-13T00:22:40;19.80;77.90
4677;DHT22;2352;48.180;11.478;2023-10-13T00:25:43;19.80;77.50
4677;DHT22;2352;48.180;11.478;2023-10-13T00:28:51;19.90;76.90
4677;DHT22;2352;48.180;11.478;2023-10-13T00:32:04;19.80;76.90
4677;DHT22;2352;48.180;11.478;2023-10-13T00:35:08;19.80;78.60
4677;DHT22;2352;48.180;11.478;2023-10-13T00:38:13;19.70;79.10
4677;DHT22;2352;48.180;11.478;2023-10-13T00:41:16;19.70;79.20
4677;DHT22;2352;48.180;11.478;2023-10-13T00:44:19;19.60;79.80
4677;DHT22;2352;48.180;11.478;2023-10-13T00:47:41;19.60;80.50
4677;DHT22;2352;48.180;11.478;2023-10-13T00:50:51;19.60;81.10
4677;DHT22;2352;48.180;11.478;2023-10-13T00:54:00;19.50;80.60
4677;DHT22;2352;48.180;11.478;2023-10-13T00:57:04;19.50;81.00
4677;DHT22;2352;48.180;11.478;2023-10-13T01:00:14;19.40;80.90
4677;DHT22;2352;48.180;11.478;2023-10-13T01:03:27;19.40;81.20
4677;DHT22;2352;48.180;11.478;2023-10-13T01:06:30;19.30;81.80
4677;DHT22;2352;48.180;11.478;2023-10-13T01:09:40;19.20;81.70
4677;DHT22;2352;48.180;11.478;2023-10-13T01:12:43;19.20;81.70
4677;DHT22;2352;48.180;11.478;2023-10-13T01:15:47;19.20;81.80
4677;DHT22;2352;48.180;11.478;2023-10-13T01:18:52;19.10;82.20
4677;DHT22;2352;48.180;11.478;2023-10-13T01:22:01;19.10;81.60
4677;DHT22;2352;48.180;11.478;2023-10-13T01:25:08;19.00;81.80
4677;DHT22;2352;48.180;11.478;2023-10-13T01:28:15;19.00;82.10
4677;DHT22;2352;48.180;11.478;2023-10-13T01:31:18;18.90;82.50
4677;DHT22;2352;48.180;11.478;2023-10-13T01:34:29;18.90;82.70
4677;DHT22;2352;48.180;11.478;2023-10-13T01:37:35;18.80;83.00
4677;DHT22;2352;48.180;11.478;2023-10-13T01:40:38;18.80;83.30
4677;DHT22;2352;48.180;11.478;2023-10-13T01:43:41;18.70;83.90
4677;DHT22;2352;48.180;11.478;2023-10-13T01:46:46;18.70;84.00
4677;DHT22;2352;48.180;11.478;2023-10-13T01:49:50;18.70;84.00
4677;DHT22;2352;48.180;11.478;2023-10-13T01:52:53;18.60;84.50
4677;DHT22;2352;48.180;11.478;2023-10-13T01:56:03;18.60;85.80
4677;DHT22;2352;48.180;11.478;2023-10-13T01:59:12;18.60;85.90
4677;DHT22;2352;48.180;11.478;2023-10-13T02:02:15;18.60;85.60
4677;DHT22;2352;48.180;11.478;2023-10-13T02:05:22;18.50;85.90
4677;DHT22;2352;48.180;11.478;2023-10-13T02:08:29;18.50;86.60
4677;DHT22;2352;48.180;11.478;2023-10-13T02:11:33;18.50;86.80
4677;DHT22;2352;48.180;11.478;2023-10-13T02:14:35;18.50;87.30
4677;DHT22;2352;48.180;11.478;2023-10-13T02:17:39;18.40;87.90
4677;DHT22;2352;48.180;11.478;2023-10-13T02:20:47;18.40;88.10
4677;DHT22;2352;48.180;11.478;2023-10-13T02:23:56;18.40;88.60
4677;DHT22;2352;48.180;11.478;2023-10-13T02:27:03;18.30;88.90
4677;DHT22;2352;48.180;11.478;2023-10-13T02:30:12;18.20;89.00
4677;DHT22;2352;48.180;11.478;2023-10-13T02:33:16;18.10;89.50
4677;DHT22;2352;48.180;11.478;2023-10-13T02:36:23;18.00;89.60
4677;DHT22;2352;48.180;11.478;2023-10-13T02:39:38;18.00;90.10
4677;DHT22;2352;48.180;11.478;2023-10-13T02:42:44;18.00;90.00
4677;DHT22;2352;48.180;11.478;2023-10-13T02:45:52;17.80;90.30
4677;DHT22;2352;48.180;11.478;2023-10-13T02:48:59;17.80;90.30
4677;DHT22;2352;48.180;11.478;2023-10-13T02:52:11;17.80;90.30
4677;DHT22;2352;48.180;11.478;2023-10-13T02:55:14;17.70;90.70
4677;DHT22;2352;48.180;11.478;2023-10-13T02:58:28;17.60;90.90
4677;DHT22;2352;48.180;11.478;2023-10-13T03:01:40;17.50;90.70
4677;DHT22;2352;48.180;11.478;2023-10-13T03:04:44;17.50;90.70
4677;DHT22;2352;48.180;11.478;2023-10-13T03:07:46;17.50;90.90
4677;DHT22;2352;48.180;11.478;2023-10-13T03:10:52;17.40;91.00
4677;DHT22;2352;48.180;11.478;2023-10-13T03:13:57;17.40;91.10
4677;DHT22;2352;48.180;11.478;2023-10-13T03:17:01;17.30;91.40
4677;DHT22;2352;48.180;11.478;2023-10-13T03:20:08;17.20;91.50
4677;DHT22;2352;48.180;11.478;2023-10-13T03:23:13;17.20;91.70
4677;DHT22;2352;48.180;11.478;2023-10-13T03:26:16;17.20;92.00
4677;DHT22;2352;48.180;11.478;2023-10-13T03:29:22;17.10;92.00
4677;DHT22;2352;48.180;11.478;2023-10-13T03:32:25;17.00;92.20
4677;DHT22;2352;48.180;11.478;2023-10-13T03:35:33;17.00;92.10
4677;DHT22;2352;48.180;11.478;2023-10-13T03:38:41;16.90;92.30
4677;DHT22;2352;48.180;11.478;2023-10-13T03:41:46;16.90;92.50
4677;DHT22;2352;48.180;11.478;2023-10-13T03:44:59;16.90;92.50
4677;DHT22;2352;48.180;11.478;2023-10-13T03:48:04;16.80;92.80
4677;DHT22;2352;48.180;11.478;2023-10-13T03:51:10;16.70;92.90
4677;DHT22;2352;48.180;11.478;2023-10-13T03:54:17;16.70;93.30
4677;DHT22;2352;48.180;11.478;2023-10-13T03:57:20;16.60;93.20
4677;DHT22;2352;48.180;11.478;2023-10-13T04:00:25;16.60;93.50
4677;DHT22;2352;48.180;11.478;2023-10-13T04:03:28;16.50;93.50
4677;DHT22;2352;48.180;11.478;2023-10-13T04:06:52;16.50;93.50
4677;DHT22;2352;48.180;11.478;2023-10-13T04:10:03;16.40;93.40
4677;DHT22;2352;48.180;11.478;2023-10-13T04:13:35;16.40;93.40
4677;DHT22;2352;48.180;11.478;2023-10-13T04:16:57;16.30;93.80
4677;DHT22;2352;48.180;11.478;2023-10-13T04:20:02;16.30;93.80
4677;DHT22;2352;48.180;11.478;2023-10-13T04:23:29;16.30;93.60
4677;DHT22;2352;48.180;11.478;2023-10-13T04:26:52;16.40;93.60
4677;DHT22;2352;48.180;11.478;2023-10-13T04:30:13;16.40;93.40
4677;DHT22;2352;48.180;11.478;2023-10-13T04:33:28;16.40;93.50
4677;DHT22;2352;48.180;11.478;2023-10-13T04:36:38;16.40;93.70
4677;DHT22;2352;48.180;11.478;2023-10-13T04:39:47;16.30;93.70
4677;DHT22;2352;48.180;11.478;2023-10-13T04:42:58;16.30;93.60
4677;DHT22;2352;48.180;11.478;2023-10-13T04:46:06;16.30;93.80
4677;DHT22;2352;48.180;11.478;2023-10-13T04:49:29;16.20;93.80
4677;DHT22;2352;48.180;11.478;2023-10-13T04:52:37;16.20;93.90
4677;DHT22;2352;48.180;11.478;2023-10-13T04:56:03;16.20;94.20
4677;DHT22;2352;48.180;11.478;2023-10-13T04:59:20;16.20;94.20
4677;DHT22;2352;48.180;11.478;2023-10-13T05:02:38;17.30;94.50
4677;DHT22;2352;48.180;11.478;2023-10-13T05:06:19;16.10;94.30
4677;DHT22;2352;48.180;11.478;2023-10-13T05:09:38;16.00;94.50
4677;DHT22;2352;48.180;11.478;2023-10-13T05:12:59;16.00;94.50
4677;DHT22;2352;48.180;11.478;2023-10-13T05:16:19;16.00;94.20
4677;DHT22;2352;48.180;11.478;2023-10-13T05:19:40;16.00;94.40
4677;DHT22;2352;48.180;11.478;2023-10-13T05:23:02;16.10;94.20
4677;DHT22;2352;48.180;11.478;2023-10-13T05:26:28;16.10;94.10
4677;DHT22;2352;48.180;11.478;2023-10-13T05:29:48;16.10;94.30
4677;DHT22;2352;48.180;11.478;2023-10-13T05:33:09;16.10;94.30
4677;DHT22;2352;48.180;11.478;2023-10-13T05:36:29;16.00;94.50
4677;DHT22;2352;48.180;11.478;2023-10-13T05:39:51;16.10;94.10
4677;DHT22;2352;48.180;11.478;2023-10-13T05:43:11;16.00;94.40
4677;DHT22;2352;48.180;11.478;2023-10-13T05:46:32;16.00;94.50
4677;DHT22;2352;48.180;11.478;2023-10-13T05:49:51;16.00;94.20
4677;DHT22;2352;48.180;11.478;2023-10-13T05:53:05;16.00;94.30
4677;DHT22;2352;48.180;11.478;2023-10-13T05:56:27;16.00;93.90
4677;DHT22;2352;48.180;11.478;2023-10-13T06:00:02;16.10;93.60
4677;DHT22;2352;48.180;11.478;2023-10-13T06:03:22;16.10;93.40
4677;DHT22;2352;48.180;11.478;2023-10-13T06:06:52;16.10;93.30
4677;DHT22;2352;48.180;11.478;2023-10-13T06:10:13;16.20;92.90
4677;DHT22;2352;48.180;11.478;2023-10-13T06:13:35;16.40;92.40
4677;DHT22;2352;48.180;11.478;2023-10-13T06:16:55;16.50;91.80
4677;DHT22;2352;48.180;11.478;2023-10-13T06:20:16;16.50;91.60
4677;DHT22;2352;48.180;11.478;2023-10-13T06:23:36;16.60;91.00
4677;DHT22;2352;48.180;11.478;2023-10-13T06:26:56;16.60;91.10
4677;DHT22;2352;48.180;11.478;2023-10-13T06:30:18;16.60;90.70
4677;DHT22;2352;48.180;11.478;2023-10-13T06:33:21;16.60;90.30
4677;DHT22;2352;48.180;11.478;2023-10-13T06:36:30;16.60;90.90
4677;DHT22;2352;48.180;11.478;2023-10-13T06:39:35;16.70;90.60
4677;DHT22;2352;48.180;11.478;2023-10-13T06:42:38;16.80;89.20
4677;DHT22;2352;48.180;11.478;2023-10-13T06:45:46;16.90;88.10
4677;DHT22;2352;48.180;11.478;2023-10-13T06:48:53;17.10;85.50
4677;DHT22;2352;48.180;11.478;2023-10-13T06:51:56;17.40;84.00
4677;DHT22;2352;48.180;11.478;2023-10-13T06:55:02;17.60;81.50
4677;DHT22;2352;48.180;11.478;2023-10-13T06:58:07;17.80;80.10
4677;DHT22;2352;48.180;11.478;2023-10-13T07:01:17;17.90;79.00
4677;DHT22;2352;48.180;11.478;2023-10-13T07:04:24;18.00;79.30
4677;DHT22;2352;48.180;11.478;2023-10-13T07:07:28;18.00;78.40
4677;DHT22;2352;48.180;11.478;2023-10-13T07:10:32;18.10;79.00
4677;DHT22;2352;48.180;11.478;2023-10-13T07:13:46;18.20;77.60
4677;DHT22;2352;48.180;11.478;2023-10-13T07:16:59;18.40;76.40
4677;DHT22;2352;48.180;11.478;2023-10-13T07:20:03;18.50;74.90
4677;DHT22;2352;48.180;11.478;2023-10-13T07:23:16;18.70;74.30
4677;DHT22;2352;48.180;11.478;2023-10-13T07:26:22;18.80;73.40
4677;DHT22;2352;48.180;11.478;2023-10-13T07:29:25;19.00;72.90
4677;DHT22;2352;48.180;11.478;2023-10-13T07:32:29;19.10;72.50
4677;DHT22;2352;48.180;11.478;2023-10-13T07:35:36;19.20;71.50
4677;DHT22;2352;48.180;11.478;2023-10-13T07:38:39;19.20;71.10
4677;DHT22;2352;48.180;11.478;2023-10-13T07:41:44;19.40;70.80
4677;DHT22;2352;48.180;11.478;2023-10-13T07:44:53;19.50;71.00
4677;DHT22;2352;48.180;11.478;2023-10-13T07:47:58;19.70;70.60
4677;DHT22;2352;48.180;11.478;2023-10-13T07:51:03;19.90;70.10
4677;DHT22;2352;48.180;11.478;2023-10-13T07:54:07;20.00;69.90
4677;DHT22;2352;48.180;11.478;2023-10-13T07:57:13;20.20;69.00
4677;DHT22;2352;48.180;11.478;2023-10-13T08:00:17;20.30;68.20
4677;DHT22;2352;48.180;11.478;2023-10-13T08:03:32;20.50;67.60
4677;DHT22;2352;48.180;11.478;2023-10-13T08:06:45;20.60;66.60
4677;DHT22;2352;48.180;11.478;2023-10-13T08:09:50;20.90;68.00
4677;DHT22;2352;48.180;11.478;2023-10-13T08:12:54;21.10;65.70
4677;DHT22;2352;48.180;11.478;2023-10-13T08:16:01;21.20;64.70
4677;DHT22;2352;48.180;11.478;2023-10-13T08:19:10;21.50;65.30
4677;DHT22;2352;48.180;11.478;2023-10-13T08:22:15;21.40;63.10
4677;DHT22;2352;48.180;11.478;2023-10-13T08:25:28;21.50;62.90
4677;DHT22;2352;48.180;11.478;2023-10-13T08:28:56;21.80;64.10
4677;DHT22;2352;48.180;11.478;2023-10-13T08:31:59;21.90;61.30
4677;DHT22;2352;48.180;11.478;2023-10-13T08:35:17;21.90;60.40
4677;DHT22;2352;48.180;11.478;2023-10-13T08:38:36;22.10;59.80
4677;DHT22;2352;48.180;11.478;2023-10-13T08:41:53;22.20;59.80
4677;DHT22;2352;48.180;11.478;2023-10-13T08:45:13;22.30;60.00
4677;DHT22;2352;48.180;11.478;2023-10-13T08:48:43;22.70;59.50
4677;DHT22;2352;48.180;11.478;2023-10-13T08:51:50;22.90;59.00
4677;DHT22;2352;48.180;11.478;2023-10-13T08:55:07;23.20;59.90
4677;DHT22;2352;48.180;11.478;2023-10-13T08:58:31;23.20;57.30
4677;DHT22;2352;48.180;11.478;2023-10-13T09:01:53;23.50;57.50
4677;DHT22;2352;48.180;11.478;2023-10-13T09:05:17;23.70;56.60
4677;DHT22;2352;48.180;11.478;2023-10-13T09:08:36;23.70;56.70
4677;DHT22;2352;48.180;11.478;2023-10-13T09:11:47;24.00;54.90
4677;DHT22;2352;48.180;11.478;2023-10-13T09:14:56;24.20;54.30
4677;DHT22;2352;48.180;11.478;2023-10-13T09:17:59;24.30;53.50
4677;DHT22;2352;48.180;11.478;2023-10-13T09:21:15;24.10;53.70
4677;DHT22;2352;48.180;11.478;2023-10-13T09:24:50;24.30;51.80
4677;DHT22;2352;48.180;11.478;2023-10-13T09:27:53;24.50;52.50
4677;DHT22;2352;48.180;11.478;2023-10-13T09:30:56;24.70;50.70
4677;DHT22;2352;48.180;11.478;2023-10-13T09:33:58;24.80;50.20
4677;DHT22;2352;48.180;11.478;2023-10-13T09:37:05;24.90;50.40
4677;DHT22;2352;48.180;11.478;2023-10-13T09:40:16;25.20;50.80
4677;DHT22;2352;48.180;11.478;2023-10-13T09:43:31;25.60;48.50
4677;DHT22;2352;48.180;11.478;2023-10-13T09:46:37;25.70;48.20
4677;DHT22;2352;48.180;11.478;2023-10-13T09:49:44;25.20;46.80
4677;DHT22;2352;48.180;11.478;2023-10-13T09:52:51;25.20;47.20
4677;DHT22;2352;48.180;11.478;2023-10-13T09:56:00;25.40;47.60
4677;DHT22;2352;48.180;11.478;2023-10-13T09:59:17;25.90;49.40
4677;DHT22;2352;48.180;11.478;2023-10-13T10:02:21;26.40;50.20
4677;DHT22;2352;48.180;11.478;2023-10-13T10:05:28;26.50;46.00
4677;DHT22;2352;48.180;11.478;2023-10-13T10:08:36;26.60;47.00
4677;DHT22;2352;48.180;11.478;2023-10-13T10:12:06;26.80;45.30
4677;DHT22;2352;48.180;11.478;2023-10-13T10:15:24;27.00;45.60
4677;DHT22;2352;48.180;11.478;2023-10-13T10:18:32;26.50;45.10
4677;DHT22;2352;48.180;11.478;2023-10-13T10:21:35;26.60;42.80
4677;DHT22;2352;48.180;11.478;2023-10-13T10:24:38;26.90;44.10
4677;DHT22;2352;48.180;11.478;2023-10-13T10:27:43;27.20;44.40
4677;DHT22;2352;48.180;11.478;2023-10-13T10:30:46;27.50;43.30
4677;DHT22;2352;48.180;11.478;2023-10-13T10:33:49;27.70;43.00
4677;DHT22;2352;48.180;11.478;2023-10-13T10:36:54;27.50;41.90
4677;DHT22;2352;48.180;11.478;2023-10-13T10:39:58;27.30;40.50
4677;DHT22;2352;48.180;11.478;2023-10-13T10:43:04;27.50;42.40
4677;DHT22;2352;48.180;11.478;2023-10-13T10:46:30;27.40;40.80
4677;DHT22;2352;48.180;11.478;2023-10-13T10:49:42;27.40;41.30
4677;DHT22;2352;48.180;11.478;2023-10-13T10:52:45;27.80;41.10
4677;DHT22;2352;48.180;11.478;2023-10-13T10:55:49;27.90;43.10
4677;DHT22;2352;48.180;11.478;2023-10-13T10:58:56;28.30;42.60
4677;DHT22;2352;48.180;11.478;2023-10-13T11:01:59;28.60;41.20
4677;DHT22;2352;48.180;11.478;2023-10-13T11:05:02;28.20;40.30
4677;DHT22;2352;48.180;11.478;2023-10-13T11:08:08;28.30;41.20
4677;DHT22;2352;48.180;11.478;2023-10-13T11:11:28;28.70;42.40
4677;DHT22;2352;48.180;11.478;2023-10-13T11:14:37;28.70;40.10
4677;DHT22;2352;48.180;11.478;2023-10-13T11:17:40;29.00;41.80
4677;DHT22;2352;48.180;11.478;2023-10-13T11:20:56;29.30;41.20
4677;DHT22;2352;48.180;11.478;2023-10-13T11:23:59;29.40;40.70
4677;DHT22;2352;48.180;11.478;2023-10-13T11:27:16;29.60;42.10
4677;DHT22;2352;48.180;11.478;2023-10-13T11:30:25;29.70;39.80
4677;DHT22;2352;48.180;11.478;2023-10-13T11:33:31;29.70;39.50
4677;DHT22;2352;48.180;11.478;2023-10-13T11:36:35;29.40;40.20
4677;DHT22;2352;48.180;11.478;2023-10-13T11:39:38;29.40;39.60
4677;DHT22;2352;48.180;11.478;2023-10-13T11:42:44;29.60;39.60
4677;DHT22;2352;48.180;11.478;2023-10-13T11:45:50;29.60;38.80
4677;DHT22;2352;48.180;11.478;2023-10-13T11:48:56;29.50;39.00
4677;DHT22;2352;48.180;11.478;2023-10-13T11:52:06;29.80;39.00
4677;DHT22;2352;48.180;11.478;2023-10-13T11:55:26;29.50;37.90
4677;DHT22;2352;48.180;11.478;2023-10-13T11:58:29;30.00;39.20
4677;DHT22;2352;48.180;11.478;2023-10-13T12:01:33;30.40;39.90
4677;DHT22;2352;48.180;11.478;2023-10-13T12:04:50;30.60;38.40
4677;DHT22;2352;48.180;11.478;2023-10-13T12:07:56;30.60;38.10
4677;DHT22;2352;48.180;11.478;2023-10-13T12:11:05;31.00;39.10
4677;DHT22;2352;48.180;11.478;2023-10-13T12:14:22;30.90;37.60
4677;DHT22;2352;48.180;11.478;2023-10-13T12:17:32;30.90;37.10
4677;DHT22;2352;48.180;11.478;2023-10-13T12:20:36;31.30;37.90
4677;DHT22;2352;48.180;11.478;2023-10-13T12:23:47;31.70;39.20
4677;DHT22;2352;48.180;11.478;2023-10-13T12:26:52;31.80;36.40
4677;DHT22;2352;48.180;11.478;2023-10-13T12:29:57;31.50;35.00
4677;DHT22;2352;48.180;11.478;2023-10-13T12:33:09;31.40;34.50
4677;DHT22;2352;48.180;11.478;2023-10-13T12:36:12;31.90;36.80
4677;DHT22;2352;48.180;11.478;2023-10-13T12:39:32;31.80;34.90
4677;DHT22;2352;48.180;11.478;2023-10-13T12:42:52;32.20;35.50
4677;DHT22;2352;48.180;11.478;2023-10-13T12:46:13;32.20;34.20
4677;DHT22;2352;48.180;11.478;2023-10-13T12:49:32;31.90;33.10
4677;DHT22;2352;48.180;11.478;2023-10-13T12:52:53;31.80;33.20
4677;DHT22;2352;48.180;11.478;2023-10-13T12:55:56;31.80;34.20
4677;DHT22;2352;48.180;11.478;2023-10-13T12:58:59;31.80;34.10
4677;DHT22;2352;48.180;11.478;2023-10-13T13:02:02;31.90;34.40
4677;DHT22;2352;48.180;11.478;2023-10-13T13:05:10;32.10;34.20
4677;DHT22;2352;48.180;11.478;2023-10-13T13:08:14;32.50;34.20
4677;DHT22;2352;48.180;11.478;2023-10-13T13:11:24;32.50;34.40
4677;DHT22;2352;48.180;11.478;2023-10-13T13:14:28;32.50;34.50
4677;DHT22;2352;48.180;11.478;2023-10-13T13:17:31;32.40;36.40
4677;DHT22;2352;48.180;11.478;2023-10-13T13:20:36;32.70;36.20
4677;DHT22;2352;48.180;11.478;2023-10-13T13:23:41;32.90;34.40
4677;DHT22;2352;48.180;11.478;2023-10-13T13:26:44;32.80;33.80
4677;DHT22;2352;48.180;11.478;2023-10-13T13:29:49;33.10;35.70
4677;DHT22;2352;48.180;11.478;2023-10-13T13:32:53;33.10;34.00
4677;DHT22;2352;48.180;11.478;2023-10-13T13:35:58;32.60;33.40
4677;DHT22;2352;48.180;11.478;2023-10-13T13:39:01;33.00;34.60
4677;DHT22;2352;48.180;11.478;2023-10-13T13:42:05;33.00;35.40
4677;DHT22;2352;48.180;11.478;2023-10-13T13:45:12;32.90;33.60
4677;DHT22;2352;48.180;11.478;2023-10-13T13:48:23;32.90;34.20
4677;DHT22;2352;48.180;11.478;2023-10-13T13:51:30;32.80;35.30
4677;DHT22;2352;48.180;11.478;2023-10-13T13:54:35;32.90;34.60
4677;DHT22;2352;48.180;11.478;2023-10-13T13:57:42;32.90;36.10
4677;DHT22;2352;48.180;11.478;2023-10-13T14:00:45;32.60;35.60
4677;DHT22;2352;48.180;11.478;2023-10-13T14:03:50;32.40;36.30
4677;DHT22;2352;48.180;11.478;2023-10-13T14:06:54;32.00;36.40
4677;DHT22;2352;48.180;11.478;2023-10-13T14:09:57;31.50;38.60
4677;DHT22;2352;48.180;11.478;2023-10-13T14:13:08;31.40;36.40
4677;DHT22;2352;48.180;11.478;2023-10-13T14:16:15;31.10;37.80
4677;DHT22;2352;48.180;11.478;2023-10-13T14:19:21;31.10;39.20
4677;DHT22;2352;48.180;11.478;2023-10-13T14:22:30;31.10;39.40
4677;DHT22;2352;48.180;11.478;2023-10-13T14:25:39;31.10;40.30
4677;DHT22;2352;48.180;11.478;2023-10-13T14:28:46;31.00;40.70
4677;DHT22;2352;48.180;11.478;2023-10-13T14:32:03;31.00;39.40
4677;DHT22;2352;48.180;11.478;2023-10-13T14:35:06;30.90;39.70
4677;DHT22;2352;48.180;11.478;2023-10-13T14:38:17;31.00;38.80
4677;DHT22;2352;48.180;11.478;2023-10-13T14:41:20;31.00;38.30
4677;DHT22;2352;48.180;11.478;2023-10-13T14:44:23;30.90;35.70
4677;DHT22;2352;48.180;11.478;2023-10-13T14:47:28;31.00;37.40
4677;DHT22;2352;48.180;11.478;2023-10-13T14:50:31;31.10;35.70
4677;DHT22;2352;48.180;11.478;2023-10-13T14:53:36;31.00;38.20
4677;DHT22;2352;48.180;11.478;2023-10-13T14:56:43;30.80;40.30
4677;DHT22;2352;48.180;11.478;2023-10-13T14:59:46;30.70;42.70
4677;DHT22;2352;48.180;11.478;2023-10-13T15:02:50;30.50;41.30
4677;DHT22;2352;48.180;11.478;2023-10-13T15:05:53;30.60;42.30
4677;DHT22;2352;48.180;11.478;2023-10-13T15:08:59;30.40;41.30
4677;DHT22;2352;48.180;11.478;2023-10-13T15:12:03;30.20;44.40
4677;DHT22;2352;48.180;11.478;2023-10-13T15:15:08;30.10;45.40
4677;DHT22;2352;48.180;11.478;2023-10-13T15:18:15;30.00;43.60
4677;DHT22;2352;48.180;11.478;2023-10-13T15:21:19;29.80;46.70
4677;DHT22;2352;48.180;11.478;2023-10-13T15:24:24;29.70;45.20
4677;DHT22;2352;48.180;11.478;2023-10-13T15:27:33;29.40;47.30
4677;DHT22;2352;48.180;11.478;2023-10-13T15:30:42;29.20;48.10
4677;DHT22;2352;48.180;11.478;2023-10-13T15:33:52;29.10;48.80
4677;DHT22;2352;48.180;11.478;2023-10-13T15:36:57;28.90;49.20
4677;DHT22;2352;48.180;11.478;2023-10-13T15:40:02;28.70;50.20
4677;DHT22;2352;48.180;11.478;2023-10-13T15:43:06;28.60;50.50
4677;DHT22;2352;48.180;11.478;2023-10-13T15:46:15;28.30;50.60
4677;DHT22;2352;48.180;11.478;2023-10-13T15:49:38;28.10;51.10
4677;DHT22;2352;48.180;11.478;2023-10-13T15:52:44;27.80;51.80
4677;DHT22;2352;48.180;11.478;2023-10-13T15:55:49;27.70;52.60
4677;DHT22;2352;48.180;11.478;2023-10-13T15:58:52;27.40;52.70
4677;DHT22;2352;48.180;11.478;2023-10-13T16:01:57;27.30;53.60
4677;DHT22;2352;48.180;11.478;2023-10-13T16:05:00;27.10;53.90
4677;DHT22;2352;48.180;11.478;2023-10-13T16:08:08;26.90;55.10
4677;DHT22;2352;48.180;11.478;2023-10-13T16:11:15;26.80;55.70
4677;DHT22;2352;48.180;11.478;2023-10-13T16:14:19;26.60;55.90
4677;DHT22;2352;48.180;11.478;2023-10-13T16:17:23;26.30;56.50
4677;DHT22;2352;48.180;11.478;2023-10-13T16:20:28;26.20;56.10
4677;DHT22;2352;48.180;11.478;2023-10-13T16:23:31;25.90;56.10
4677;DHT22;2352;48.180;11.478;2023-10-13T16:26:36;25.80;56.20
4677;DHT22;2352;48.180;11.478;2023-10-13T16:29:39;25.60;56.80
4677;DHT22;2352;48.180;11.478;2023-10-13T16:32:45;25.50;57.20
4677;DHT22;2352;48.180;11.478;2023-10-13T16:35:48;25.30;57.70
4677;DHT22;2352;48.180;11.478;2023-10-13T16:38:55;25.20;57.90
4677;DHT22;2352;48.180;11.478;2023-10-13T16:42:01;25.00;58.90
4677;DHT22;2352;48.180;11.478;2023-10-13T16:45:10;24.70;58.90
4677;DHT22;2352;48.180;11.478;2023-10-13T16:48:17;24.60;59.40
4677;DHT22;2352;48.180;11.478;2023-10-13T16:51:20;24.40;59.90
4677;DHT22;2352;48.180;11.478;2023-10-13T16:54:23;24.30;60.40
4677;DHT22;2352;48.180;11.478;2023-10-13T16:57:28;24.20;60.90
4677;DHT22;2352;48.180;11.478;2023-10-13T17:00:31;24.20;60.40
4677;DHT22;2352;48.180;11.478;2023-10-13T17:03:36;24.00;60.70
4677;DHT22;2352;48.180;11.478;2023-10-13T17:06:39;23.80;61.00
4677;DHT22;2352;48.180;11.478;2023-10-13T17:09:42;23.80;61.70
4677;DHT22;2352;48.180;11.478;2023-10-13T17:12:48;23.50;62.50
4677;DHT22;2352;48.180;11.478;2023-10-13T17:15:51;23.40;62.70
4677;DHT22;2352;48.180;11.478;2023-10-13T17:18:54;23.40;63.00
4677;DHT22;2352;48.180;11.478;2023-10-13T17:22:00;23.10;63.60
4677;DHT22;2352;48.180;11.478;2023-10-13T17:25:06;23.00;64.60
4677;DHT22;2352;48.180;11.478;2023-10-13T17:28:10;22.90;65.30
4677;DHT22;2352;48.180;11.478;2023-10-13T17:31:15;22.80;66.00
4677;DHT22;2352;48.180;11.478;2023-10-13T17:34:18;22.70;67.00
4677;DHT22;2352;48.180;11.478;2023-10-13T17:37:21;22.60;67.80
4677;DHT22;2352;48.180;11.478;2023-10-13T17:40:24;22.40;68.60
4677;DHT22;2352;48.180;11.478;2023-10-13T17:43:30;22.20;68.70
4677;DHT22;2352;48.180;11.478;2023-10-13T17:46:36;22.10;68.50
4677;DHT22;2352;48.180;11.478;2023-10-13T17:49:41;22.10;68.10
4677;DHT22;2352;48.180;11.478;2023-10-13T17:52:45;22.00;69.30
4677;DHT22;2352;48.180;11.478;2023-10-13T17:55:49;21.80;70.40
4677;DHT22;2352;48.180;11.478;2023-10-13T17:58:55;21.70;70.70
4677;DHT22;2352;48.180;11.478;2023-10-13T18:02:01;21.70;70.60
4677;DHT22;2352;48.180;11.478;2023-10-13T18:05:05;21.70;70.50
4677;DHT22;2352;48.180;11.478;2023-10-13T18:08:11;21.60;71.00
4677;DHT22;2352;48.180;11.478;2023-10-13T18:11:15;21.50;71.40
4677;DHT22;2352;48.180;11.478;2023-10-13T18:14:19;21.40;72.60
4677;DHT22;2352;48.180;11.478;2023-10-13T18:17:22;21.30;72.20
4677;DHT22;2352;48.180;11.478;2023-10-13T18:20:25;21.30;72.50
4677;DHT22;2352;48.180;11.478;2023-10-13T18:23:30;21.30;72.70
4677;DHT22;2352;48.180;11.478;2023-10-13T18:26:33;21.20;73.30
4677;DHT22;2352;48.180;11.478;2023-10-13T18:29:37;21.10;73.60
4677;DHT22;2352;48.180;11.478;2023-10-13T18:32:40;21.00;72.90
4677;DHT22;2352;48.180;11.478;2023-10-13T18:35:43;21.00;73.50
4677;DHT22;2352;48.180;11.478;2023-10-13T18:38:48;21.00;72.90
4677;DHT22;2352;48.180;11.478;2023-10-13T18:41:51;21.00;73.00
4677;DHT22;2352;48.180;11.478;2023-10-13T18:44:56;20.90;73.70
4677;DHT22;2352;48.180;11.478;2023-10-13T18:47:59;20.90;73.40
4677;DHT22;2352;48.180;11.478;2023-10-13T18:51:05;20.80;73.40
4677;DHT22;2352;48.180;11.478;2023-10-13T18:54:08;20.80;74.00
4677;DHT22;2352;48.180;11.478;2023-10-13T18:57:11;20.70;73.80
4677;DHT22;2352;48.180;11.478;2023-10-13T19:00:17;20.60;73.70
4677;DHT22;2352;48.180;11.478;2023-10-13T19:03:25;20.70;73.60
4677;DHT22;2352;48.180;11.478;2023-10-13T19:06:30;20.50;73.40
4677;DHT22;2352;48.180;11.478;2023-10-13T19:09:33;20.50;73.20
4677;DHT22;2352;48.180;11.478;2023-10-13T19:12:38;20.50;73.20
4677;DHT22;2352;48.180;11.478;2023-10-13T19:15:44;20.50;73.40
4677;DHT22;2352;48.180;11.478;2023-10-13T19:18:47;20.40;74.20
4677;DHT22;2352;48.180;11.478;2023-10-13T19:21:50;20.30;74.00
4677;DHT22;2352;48.180;11.478;2023-10-13T19:24:54;20.30;74.90
4677;DHT22;2352;48.180;11.478;2023-10-13T19:27:57;20.20;74.60
4677;DHT22;2352;48.180;11.478;2023-10-13T19:31:05;20.20;74.80
4677;DHT22;2352;48.180;11.478;2023-10-13T19:34:08;20.10;75.00
4677;DHT22;2352;48.180;11.478;2023-10-13T19:37:12;20.10;74.80
4677;DHT22;2352;48.180;11.478;2023-10-13T19:40:15;20.00;75.40
4677;DHT22;2352;48.180;11.478;2023-10-13T19:43:18;20.00;75.50
4677;DHT22;2352;48.180;11.478;2023-10-13T19:46:24;19.90;76.40
4677;DHT22;2352;48.180;11.478;2023-10-13T19:49:27;19.80;75.60
4677;DHT22;2352;48.180;11.478;2023-10-13T19:52:30;19.80;75.80
4677;DHT22;2352;48.180;11.478;2023-10-13T19:55:37;19.80;75.60
4677;DHT22;2352;48.180;11.478;2023-10-13T19:58:41;19.80;75.60
4677;DHT22;2352;48.180;11.478;2023-10-13T20:01:45;19.70;75.50
4677;DHT22;2352;48.180;11.478;2023-10-13T20:04:50;19.70;75.50
4677;DHT22;2352;48.180;11.478;2023-10-13T20:07:54;19.70;74.50